Time;durP1;ratioP1;P1;durP2;ratioP2;P2;SDS_P1;SDS_P2;PMS_P1;PMS_P2;Temp;Humidity;BMP_temperature;BMP_pressure;BME280_temperature;BME280_humidity;BME280_pressure;Samples;Min_cycle;Max_cycle;Signal;HPM_P1;HPM_P2
2022/10/18 00:01:35;;;;;;;;;;;18.70;1.00;;;;;;5033111;28;20279;-52
2022/10/18 00:04:01;;;;;;;;;;;18.70;1.00;;;;;;5033005;28;19921;-49
2022/10/18 00:06:28;;;;;;;;;;;18.70;1.00;;;;;;5036950;28;20020;-51
2022/10/18 00:08:55;;;;;;;;;;;18.70;1.00;;;;;;5037067;28;19928;-53
2022/10/18 00:11:21;;;;;;;;;;;18.70;1.00;;;;;;5037058;28;20256;-53
2022/10/18 00:13:48;;;;;;;;;;;18.60;1.00;;;;;;5036871;28;19956;-50
2022/10/18 00:16:16;;;;;;;;;;;18.70;1.00;;;;;;5036748;28;19955;-49
2022/10/18 00:18:43;;;;;;;;;;;18.70;1.00;;;;;;5037091;28;20370;-51
2022/10/18 00:21:12;;;;;;;;;;;18.70;1.00;;;;;;5036962;28;19992;-49
2022/10/18 00:23:39;;;;;;;;;;;18.70;1.00;;;;;;5036537;28;19932;-51
2022/10/18 00:26:06;;;;;;;;;;;18.70;1.00;;;;;;5036827;28;19967;-50
2022/10/18 00:28:33;;;;;;;;;;;18.70;1.00;;;;;;5036896;28;19921;-49
2022/10/18 00:31:19;;;;;;;;;;;18.70;1.00;;;;;;5036538;28;19944;-48
2022/10/18 00:33:49;;;;;;;;;;;18.70;1.00;;;;;;5036379;28;19921;-54
2022/10/18 00:36:15;;;;;;;;;;;18.70;1.00;;;;;;5036712;28;19928;-49
2022/10/18 00:38:42;;;;;;;;;;;18.60;1.00;;;;;;5036485;28;19921;-54
2022/10/18 00:41:11;;;;;;;;;;;18.60;1.00;;;;;;5036456;28;19944;-54
2022/10/18 00:43:50;;;;;;;;;;;18.60;1.00;;;;;;5034986;28;20356;-55
2022/10/18 00:46:17;;;;;;;;;;;18.60;1.00;;;;;;5036219;28;19921;-56
2022/10/18 00:48:44;;;;;;;;;;;18.60;1.00;;;;;;5036350;28;19967;-48
2022/10/18 00:51:11;;;;;;;;;;;18.60;1.00;;;;;;5036327;28;20331;-54
2022/10/18 00:53:38;;;;;;;;;;;18.60;1.00;;;;;;5035935;28;19932;-52
2022/10/18 00:56:05;;;;;;;;;;;18.60;1.00;;;;;;5036212;28;19936;-54
2022/10/18 00:58:32;;;;;;;;;;;18.60;1.00;;;;;;5036141;28;20409;-53
2022/10/18 01:00:58;;;;;;;;;;;18.60;1.00;;;;;;5036302;28;20372;-55
2022/10/18 01:03:25;;;;;;;;;;;18.60;1.00;;;;;;5035874;28;19952;-53
2022/10/18 01:05:52;;;;;;;;;;;18.60;1.00;;;;;;5035975;28;20379;-51
2022/10/18 01:08:36;;;;;;;;;;;18.60;1.00;;;;;;5036019;28;19924;-55
2022/10/18 01:11:12;;;;;;;;;;;18.60;1.00;;;;;;5035975;28;19921;-58
2022/10/18 01:13:58;;;;;;;;;;;18.60;1.00;;;;;;5035505;28;19921;-51
2022/10/18 01:16:25;;;;;;;;;;;18.60;1.00;;;;;;5034931;28;19921;-52
2022/10/18 01:18:56;;;;;;;;;;;18.60;1.00;;;;;;5035983;28;20322;-51
2022/10/18 01:21:41;;;;;;;;;;;18.60;1.00;;;;;;5035732;28;20405;-57
2022/10/18 01:24:17;;;;;;;;;;;18.60;1.00;;;;;;5035650;28;19924;-52
2022/10/18 01:26:47;;;;;;;;;;;18.60;1.00;;;;;;5035798;28;19925;-55
2022/10/18 01:29:20;;;;;;;;;;;18.60;1.00;;;;;;5035714;28;19921;-54
2022/10/18 01:31:49;;;;;;;;;;;18.60;1.00;;;;;;5035249;28;20031;-56
2022/10/18 01:34:16;;;;;;;;;;;18.60;1.00;;;;;;5035599;28;19921;-58
2022/10/18 01:36:46;;;;;;;;;;;18.60;1.00;;;;;;5035465;28;19995;-58
2022/10/18 01:39:15;;;;;;;;;;;18.50;1.00;;;;;;5035596;28;19927;-57
2022/10/18 01:41:43;;;;;;;;;;;18.60;1.00;;;;;;5035098;28;20024;-56
2022/10/18 01:44:13;;;;;;;;;;;18.50;1.00;;;;;;5035505;28;19975;-56
2022/10/18 01:46:41;;;;;;;;;;;18.60;1.00;;;;;;5035139;28;20007;-57
2022/10/18 01:49:07;;;;;;;;;;;18.50;1.00;;;;;;5035302;28;19928;-56
2022/10/18 01:51:34;;;;;;;;;;;18.50;1.00;;;;;;5035124;28;19921;-51
2022/10/18 01:54:01;;;;;;;;;;;18.50;1.00;;;;;;5035036;28;19928;-57
2022/10/18 01:56:36;;;;;;;;;;;18.50;1.00;;;;;;5035039;28;19921;-55
2022/10/18 01:59:22;;;;;;;;;;;18.50;1.00;;;;;;5035178;28;20374;-54
2022/10/18 02:02:06;;;;;;;;;;;18.50;1.00;;;;;;5034687;28;19940;-52
2022/10/18 02:04:39;;;;;;;;;;;18.50;1.00;;;;;;5034920;28;19921;-57
2022/10/18 02:07:13;;;;;;;;;;;18.50;1.00;;;;;;5035153;28;19921;-59
2022/10/18 02:09:45;;;;;;;;;;;18.50;1.00;;;;;;5035005;28;20271;-53
2022/10/18 02:12:13;;;;;;;;;;;18.50;1.00;;;;;;5034513;28;19992;-56
2022/10/18 02:14:40;;;;;;;;;;;18.50;1.00;;;;;;5034787;28;19921;-52
2022/10/18 02:17:08;;;;;;;;;;;18.50;1.00;;;;;;5034813;28;20359;-52
2022/10/18 02:19:38;;;;;;;;;;;18.50;1.00;;;;;;5034610;28;19921;-57
2022/10/18 02:22:06;;;;;;;;;;;18.50;1.00;;;;;;5034350;28;19960;-53
2022/10/18 02:24:35;;;;;;;;;;;18.50;1.00;;;;;;5034468;28;20314;-57
2022/10/18 02:27:02;;;;;;;;;;;18.50;1.00;;;;;;5034605;28;19928;-55
2022/10/18 02:29:29;;;;;;;;;;;18.50;1.00;;;;;;5034238;28;19925;-54
2022/10/18 02:32:04;;;;;;;;;;;18.50;1.00;;;;;;5034290;28;20355;-57
2022/10/18 02:34:36;;;;;;;;;;;18.50;1.00;;;;;;5034607;28;19947;-57
2022/10/18 02:37:03;;;;;;;;;;;18.50;1.00;;;;;;5034320;28;19928;-53
2022/10/18 02:39:30;;;;;;;;;;;18.40;1.00;;;;;;5034422;28;19929;-58
2022/10/18 02:41:57;;;;;;;;;;;18.40;1.00;;;;;;5034115;28;20279;-57
2022/10/18 02:44:23;;;;;;;;;;;18.40;1.00;;;;;;5034113;28;19921;-51
2022/10/18 02:46:51;;;;;;;;;;;18.40;1.00;;;;;;5034138;28;19924;-57
2022/10/18 02:49:17;;;;;;;;;;;18.40;1.00;;;;;;5034223;28;19921;-58
2022/10/18 02:51:44;;;;;;;;;;;18.40;1.00;;;;;;5033748;28;19925;-51
2022/10/18 02:54:11;;;;;;;;;;;18.40;1.00;;;;;;5034088;28;19921;-54
2022/10/18 02:56:37;;;;;;;;;;;18.40;1.00;;;;;;5033959;28;19960;-55
2022/10/18 02:59:06;;;;;;;;;;;18.40;1.00;;;;;;5033900;28;19921;-56
2022/10/18 03:01:33;;;;;;;;;;;18.40;1.00;;;;;;5033770;28;20288;-59
2022/10/18 03:04:00;;;;;;;;;;;18.40;1.00;;;;;;5033637;28;19931;-58
2022/10/18 03:06:27;;;;;;;;;;;18.40;1.00;;;;;;5033700;28;19921;-55
2022/10/18 03:08:54;;;;;;;;;;;18.40;1.00;;;;;;5033641;28;19921;-50
2022/10/18 03:11:21;;;;;;;;;;;18.40;1.00;;;;;;5033645;28;19975;-51
2022/10/18 03:13:49;;;;;;;;;;;18.40;1.00;;;;;;5033427;28;19975;-54
2022/10/18 03:16:16;;;;;;;;;;;18.40;1.00;;;;;;5033593;28;19921;-54
2022/10/18 03:18:43;;;;;;;;;;;18.40;1.00;;;;;;5033657;28;19994;-58
2022/10/18 03:21:10;;;;;;;;;;;18.40;1.00;;;;;;5033558;28;19921;-50
2022/10/18 03:23:37;;;;;;;;;;;18.40;1.00;;;;;;5033560;28;19925;-57
2022/10/18 03:26:04;;;;;;;;;;;18.40;1.00;;;;;;5033496;28;19921;-54
2022/10/18 03:28:30;;;;;;;;;;;18.40;1.00;;;;;;5033570;28;19952;-56
2022/10/18 03:31:01;;;;;;;;;;;18.40;1.00;;;;;;5033376;28;19966;-51
2022/10/18 03:33:28;;;;;;;;;;;18.40;1.00;;;;;;5033131;28;19921;-51
2022/10/18 03:35:54;;;;;;;;;;;18.40;1.00;;;;;;5033468;28;19921;-52
2022/10/18 03:38:22;;;;;;;;;;;18.40;1.00;;;;;;5033432;28;19921;-52
2022/10/18 03:40:48;;;;;;;;;;;18.40;1.00;;;;;;5032828;28;19921;-53
2022/10/18 03:43:15;;;;;;;;;;;18.40;1.00;;;;;;5032981;28;19928;-58
2022/10/18 03:45:42;;;;;;;;;;;18.40;1.00;;;;;;5033409;28;19920;-56
2022/10/18 03:48:08;;;;;;;;;;;18.40;1.00;;;;;;5033268;28;19921;-54
2022/10/18 03:50:35;;;;;;;;;;;18.40;1.00;;;;;;5033233;28;19948;-53
2022/10/18 03:53:02;;;;;;;;;;;18.40;1.00;;;;;;5033119;28;19921;-51
2022/10/18 03:55:28;;;;;;;;;;;18.40;1.00;;;;;;5033290;28;19921;-55
2022/10/18 03:57:55;;;;;;;;;;;18.40;1.00;;;;;;5033113;28;19928;-55
2022/10/18 04:00:22;;;;;;;;;;;18.40;1.00;;;;;;5033402;28;19967;-54
2022/10/18 04:02:49;;;;;;;;;;;18.30;1.00;;;;;;5032827;28;20012;-51
2022/10/18 04:05:23;;;;;;;;;;;18.30;1.00;;;;;;5033165;28;19949;-60
2022/10/18 04:07:49;;;;;;;;;;;18.30;1.00;;;;;;5033345;28;19964;-52
2022/10/18 04:10:17;;;;;;;;;;;18.40;1.00;;;;;;5026813;28;19980;-57
2022/10/18 04:12:44;;;;;;;;;;;18.40;1.00;;;;;;5032512;28;20383;-60
2022/10/18 04:15:11;;;;;;;;;;;18.30;1.00;;;;;;5032267;28;19925;-51
2022/10/18 04:17:37;;;;;;;;;;;18.20;1.00;;;;;;5032921;28;19963;-55
2022/10/18 04:20:04;;;;;;;;;;;18.20;1.00;;;;;;5033190;28;20333;-54
2022/10/18 04:22:31;;;;;;;;;;;18.20;1.00;;;;;;5032618;28;20279;-51
2022/10/18 04:24:58;;;;;;;;;;;18.20;1.00;;;;;;5032914;28;19928;-56
2022/10/18 04:27:24;;;;;;;;;;;18.20;1.00;;;;;;5032896;28;19921;-47
2022/10/18 04:29:51;;;;;;;;;;;18.30;1.00;;;;;;5032800;28;19921;-54
2022/10/18 04:32:18;;;;;;;;;;;18.30;1.00;;;;;;5032402;28;19967;-51
2022/10/18 04:34:44;;;;;;;;;;;18.30;1.00;;;;;;5032917;28;20326;-52
2022/10/18 04:37:11;;;;;;;;;;;18.20;1.00;;;;;;5032632;28;19921;-55
2022/10/18 04:39:38;;;;;;;;;;;18.20;1.00;;;;;;5032716;28;19925;-54
2022/10/18 04:42:04;;;;;;;;;;;18.20;1.00;;;;;;5032369;28;19999;-57
2022/10/18 04:44:31;;;;;;;;;;;18.20;1.00;;;;;;5032712;28;20359;-53
2022/10/18 04:46:58;;;;;;;;;;;18.20;1.00;;;;;;5032386;28;19943;-53
2022/10/18 04:49:24;;;;;;;;;;;18.20;1.00;;;;;;5018824;28;19921;-54
2022/10/18 04:51:51;;;;;;;;;;;18.20;1.00;;;;;;5031751;28;20023;-59
2022/10/18 04:54:18;;;;;;;;;;;18.20;1.00;;;;;;5035940;28;20016;-59
2022/10/18 04:56:44;;;;;;;;;;;18.20;1.00;;;;;;5036227;28;19921;-54
2022/10/18 04:59:11;;;;;;;;;;;18.20;1.00;;;;;;5036383;28;19975;-53
2022/10/18 05:01:38;;;;;;;;;;;18.20;1.00;;;;;;5035904;28;20012;-52
2022/10/18 05:04:05;;;;;;;;;;;18.20;1.00;;;;;;5036037;28;19921;-57
2022/10/18 05:06:32;;;;;;;;;;;18.20;1.00;;;;;;5036130;28;20275;-57
2022/10/18 05:08:58;;;;;;;;;;;18.20;1.00;;;;;;5036038;28;20047;-54
2022/10/18 05:11:25;;;;;;;;;;;18.20;1.00;;;;;;5035854;28;19943;-54
2022/10/18 05:13:52;;;;;;;;;;;18.20;1.00;;;;;;5035638;28;19921;-56
2022/10/18 05:16:19;;;;;;;;;;;18.20;1.00;;;;;;5035731;28;19967;-54
2022/10/18 05:18:46;;;;;;;;;;;18.20;1.00;;;;;;5035837;28;19921;-57
2022/10/18 05:21:13;;;;;;;;;;;18.20;1.00;;;;;;5035742;28;20444;-55
2022/10/18 05:23:39;;;;;;;;;;;18.20;1.00;;;;;;5035544;28;19924;-56
2022/10/18 05:26:07;;;;;;;;;;;18.20;1.00;;;;;;5035518;28;20298;-58
2022/10/18 05:28:34;;;;;;;;;;;18.20;1.00;;;;;;5035728;28;20286;-57
2022/10/18 05:31:07;;;;;;;;;;;18.20;1.00;;;;;;5035822;28;20386;-54
2022/10/18 05:33:34;;;;;;;;;;;18.20;1.00;;;;;;5035284;28;20008;-55
2022/10/18 05:36:00;;;;;;;;;;;18.20;1.00;;;;;;5035322;28;19925;-53
2022/10/18 05:38:29;;;;;;;;;;;18.20;1.00;;;;;;5035603;28;19948;-57
2022/10/18 05:40:57;;;;;;;;;;;18.20;1.00;;;;;;5035625;28;19921;-56
2022/10/18 05:43:27;;;;;;;;;;;18.20;1.00;;;;;;5035409;28;19951;-56
2022/10/18 05:45:53;;;;;;;;;;;18.20;1.00;;;;;;5035164;28;19921;-55
2022/10/18 05:48:20;;;;;;;;;;;18.20;1.00;;;;;;5035450;28;19925;-53
2022/10/18 05:50:47;;;;;;;;;;;18.20;1.00;;;;;;5035609;28;19928;-54
2022/10/18 05:53:14;;;;;;;;;;;18.20;1.00;;;;;;5034877;28;19921;-56
2022/10/18 05:56:01;;;;;;;;;;;18.20;1.00;;;;;;5035329;28;19928;-54
2022/10/18 05:58:27;;;;;;;;;;;18.20;1.00;;;;;;5035271;28;20497;-54
2022/10/18 06:00:56;;;;;;;;;;;18.20;1.00;;;;;;5035038;28;19967;-57
2022/10/18 06:03:23;;;;;;;;;;;18.20;1.00;;;;;;5034435;28;19921;-57
2022/10/18 06:05:50;;;;;;;;;;;18.20;1.00;;;;;;5034939;28;19924;-60
2022/10/18 06:08:17;;;;;;;;;;;18.20;1.00;;;;;;5035204;28;19925;-52
2022/10/18 06:10:43;;;;;;;;;;;18.10;1.00;;;;;;5034055;28;19921;-55
2022/10/18 06:13:10;;;;;;;;;;;18.10;1.00;;;;;;5034350;28;19967;-57
2022/10/18 06:15:37;;;;;;;;;;;18.10;1.00;;;;;;5033693;28;19925;-57
2022/10/18 06:18:04;;;;;;;;;;;18.10;1.00;;;;;;5031086;28;20348;-49
2022/10/18 06:20:30;;;;;;;;;;;18.10;1.00;;;;;;5025799;28;20418;-55
2022/10/18 06:22:57;;;;;;;;;;;18.10;1.00;;;;;;5030304;28;19948;-57
2022/10/18 06:25:24;;;;;;;;;;;18.10;1.00;;;;;;5034412;28;20333;-51
2022/10/18 06:27:50;;;;;;;;;;;18.10;1.00;;;;;;5034718;28;19968;-53
2022/10/18 06:30:17;;;;;;;;;;;18.20;1.00;;;;;;5034566;28;19928;-52
2022/10/18 06:32:44;;;;;;;;;;;18.20;1.00;;;;;;5033995;28;19921;-50
2022/10/18 06:35:11;;;;;;;;;;;18.20;1.00;;;;;;5034368;28;20333;-52
2022/10/18 06:37:37;;;;;;;;;;;18.30;1.00;;;;;;5034333;28;20399;-52
2022/10/18 06:40:04;;;;;;;;;;;18.30;1.00;;;;;;5034385;28;20019;-52
2022/10/18 06:42:31;;;;;;;;;;;18.30;1.00;;;;;;5033999;28;19928;-50
2022/10/18 06:44:59;;;;;;;;;;;18.20;1.00;;;;;;5034327;28;19921;-50
2022/10/18 06:47:26;;;;;;;;;;;18.20;1.00;;;;;;5034013;28;19928;-50
2022/10/18 06:49:52;;;;;;;;;;;18.20;1.00;;;;;;5034193;28;19921;-48
2022/10/18 06:52:24;;;;;;;;;;;18.20;1.00;;;;;;5033590;28;19921;-50
2022/10/18 06:54:51;;;;;;;;;;;18.20;1.00;;;;;;5033982;28;20365;-56
2022/10/18 06:57:19;;;;;;;;;;;18.20;1.00;;;;;;5033737;28;19944;-55
2022/10/18 06:59:46;;;;;;;;;;;18.20;1.00;;;;;;5033983;28;19927;-55
2022/10/18 07:02:14;;;;;;;;;;;18.20;1.00;;;;;;5033636;28;19921;-52
2022/10/18 07:04:40;;;;;;;;;;;18.20;1.00;;;;;;5033841;28;19998;-54
2022/10/18 07:07:07;;;;;;;;;;;18.20;1.00;;;;;;5033629;28;19975;-54
2022/10/18 07:09:34;;;;;;;;;;;18.20;1.00;;;;;;5033718;28;19921;-56
2022/10/18 07:12:01;;;;;;;;;;;18.20;1.00;;;;;;5031947;28;19932;-55
2022/10/18 07:14:27;;;;;;;;;;;18.20;1.00;;;;;;5032540;28;20382;-56
2022/10/18 07:16:57;;;;;;;;;;;18.20;1.00;;;;;;5033489;28;20011;-61
2022/10/18 07:19:23;;;;;;;;;;;18.10;1.00;;;;;;5033686;28;19921;-49
2022/10/18 07:21:50;;;;;;;;;;;18.10;1.00;;;;;;5033328;28;20028;-48
2022/10/18 07:24:17;;;;;;;;;;;18.10;1.00;;;;;;5033425;28;19921;-55
2022/10/18 07:26:44;;;;;;;;;;;18.10;1.00;;;;;;5033457;28;19921;-57
2022/10/18 07:29:11;;;;;;;;;;;18.10;1.00;;;;;;5033420;28;20382;-55
2022/10/18 07:31:39;;;;;;;;;;;18.10;1.00;;;;;;5033224;28;19983;-55
2022/10/18 07:34:07;;;;;;;;;;;18.10;1.00;;;;;;5033357;28;20015;-52
2022/10/18 07:36:34;;;;;;;;;;;18.10;1.00;;;;;;5033226;28;19968;-55
2022/10/18 07:39:00;;;;;;;;;;;18.10;1.00;;;;;;5033296;28;19952;-54
2022/10/18 07:41:28;;;;;;;;;;;18.10;1.00;;;;;;5033334;28;19951;-52
2022/10/18 07:43:54;;;;;;;;;;;18.10;1.00;;;;;;5033006;28;20020;-50
2022/10/18 07:46:21;;;;;;;;;;;18.10;1.00;;;;;;5033050;28;20433;-56
2022/10/18 07:48:48;;;;;;;;;;;18.10;1.00;;;;;;5033144;28;19921;-53
2022/10/18 07:51:15;;;;;;;;;;;18.10;1.00;;;;;;5033035;28;19921;-54
2022/10/18 07:53:42;;;;;;;;;;;18.10;1.00;;;;;;5032601;28;19925;-53
2022/10/18 07:56:15;;;;;;;;;;;18.10;1.00;;;;;;5033164;28;19964;-55
2022/10/18 07:58:43;;;;;;;;;;;18.10;1.00;;;;;;5033058;28;19920;-55
2022/10/18 08:01:10;;;;;;;;;;;18.10;1.00;;;;;;5033171;28;19921;-52
2022/10/18 08:03:37;;;;;;;;;;;18.10;1.00;;;;;;5032763;28;19929;-54
2022/10/18 08:06:05;;;;;;;;;;;18.00;1.00;;;;;;5032962;28;19921;-49
2022/10/18 08:08:32;;;;;;;;;;;18.00;1.00;;;;;;5032960;28;19927;-52
2022/10/18 08:11:03;;;;;;;;;;;18.00;1.00;;;;;;5033099;28;19925;-50
2022/10/18 08:13:29;;;;;;;;;;;18.00;1.00;;;;;;5032543;28;19967;-50
2022/10/18 08:16:00;;;;;;;;;;;18.00;1.00;;;;;;5032828;28;19928;-53
2022/10/18 08:18:27;;;;;;;;;;;17.90;1.00;;;;;;5032951;28;19928;-52
2022/10/18 08:20:54;;;;;;;;;;;17.90;1.00;;;;;;5032842;28;20371;-56
2022/10/18 08:23:21;;;;;;;;;;;18.00;1.00;;;;;;5032397;28;19975;-57
2022/10/18 08:25:47;;;;;;;;;;;18.00;1.00;;;;;;5033684;28;19928;-52
2022/10/18 08:28:16;;;;;;;;;;;18.00;1.00;;;;;;5036737;28;19921;-57
2022/10/18 08:30:43;;;;;;;;;;;18.10;1.00;;;;;;5036714;28;19967;-57
2022/10/18 08:33:10;;;;;;;;;;;18.10;1.00;;;;;;5036163;28;20294;-57
2022/10/18 08:35:36;;;;;;;;;;;18.20;1.00;;;;;;5036572;28;19921;-58
2022/10/18 08:38:03;;;;;;;;;;;18.20;1.00;;;;;;5036386;28;19921;-60
2022/10/18 08:40:32;;;;;;;;;;;18.30;1.00;;;;;;5036443;28;19936;-56
2022/10/18 08:43:03;;;;;;;;;;;18.40;1.00;;;;;;5036150;28;19921;-57
2022/10/18 08:45:32;;;;;;;;;;;18.50;1.00;;;;;;5036531;28;19921;-50
2022/10/18 08:48:24;;;;;;;;;;;18.50;1.00;;;;;;5036240;28;20334;-60
2022/10/18 08:50:53;;;;;;;;;;;18.60;1.00;;;;;;5036772;28;19925;-54
2022/10/18 08:53:25;;;;;;;;;;;18.60;1.00;;;;;;5035813;28;19943;-56
2022/10/18 08:56:09;;;;;;;;;;;18.70;1.00;;;;;;5036178;28;19932;-55
2022/10/18 08:58:36;;;;;;;;;;;18.60;1.00;;;;;;5036079;28;20399;-55
2022/10/18 09:01:22;;;;;;;;;;;18.70;1.00;;;;;;5036069;28;19925;-55
2022/10/18 09:03:58;;;;;;;;;;;18.80;1.00;;;;;;5035624;28;20333;-51
2022/10/18 09:06:30;;;;;;;;;;;18.80;1.00;;;;;;5035695;28;19925;-57
2022/10/18 09:09:02;;;;;;;;;;;18.80;1.00;;;;;;5036118;28;19927;-54
2022/10/18 09:11:47;;;;;;;;;;;18.90;1.00;;;;;;5035709;28;19928;-54
2022/10/18 09:14:34;;;;;;;;;;;19.00;1.00;;;;;;5035668;28;19921;-57
2022/10/18 09:17:14;;;;;;;;;;;19.00;1.00;;;;;;5024825;28;20043;-52
2022/10/18 09:19:53;;;;;;;;;;;19.00;1.00;;;;;;5035717;28;19925;-48
2022/10/18 09:22:35;;;;;;;;;;;19.10;1.00;;;;;;5035410;28;19928;-54
2022/10/18 09:25:07;;;;;;;;;;;19.10;1.00;;;;;;5035012;28;19921;-59
2022/10/18 09:27:37;;;;;;;;;;;19.10;1.00;;;;;;5035553;28;19920;-47
2022/10/18 09:30:23;;;;;;;;;;;19.10;1.00;;;;;;5035714;28;19953;-51
2022/10/18 09:32:53;;;;;;;;;;;19.10;1.00;;;;;;5035100;28;19920;-50
2022/10/18 09:35:23;;;;;;;;;;;19.10;1.00;;;;;;5035744;28;20020;-54
2022/10/18 09:37:52;;;;;;;;;;;19.20;1.00;;;;;;5034455;28;20047;-53
2022/10/18 09:40:26;;;;;;;;;;;19.20;1.00;;;;;;5035686;28;20278;-47
2022/10/18 09:42:57;;;;;;;;;;;19.20;1.00;;;;;;5035089;28;20322;-49
2022/10/18 09:45:24;;;;;;;;;;;19.20;1.00;;;;;;5035091;28;20353;-50
2022/10/18 09:47:56;;;;;;;;;;;19.20;1.00;;;;;;5035324;28;19925;-51
2022/10/18 09:50:26;;;;;;;;;;;19.30;1.00;;;;;;5035361;28;19975;-51
2022/10/18 09:53:05;;;;;;;;;;;19.20;1.00;;;;;;5034659;28;19928;-44
2022/10/18 09:55:35;;;;;;;;;;;19.30;1.00;;;;;;5034985;28;19925;-47
2022/10/18 09:58:03;;;;;;;;;;;19.30;1.00;;;;;;5035034;28;19929;-53
2022/10/18 10:00:33;;;;;;;;;;;19.40;1.00;;;;;;5034945;28;20302;-50
2022/10/18 10:03:00;;;;;;;;;;;19.40;1.00;;;;;;5034629;28;19928;-50
2022/10/18 10:05:27;;;;;;;;;;;19.40;1.00;;;;;;5035117;28;19925;-54
2022/10/18 10:07:58;;;;;;;;;;;19.40;1.00;;;;;;5034563;28;19921;-49
2022/10/18 10:10:26;;;;;;;;;;;19.40;1.00;;;;;;5035071;28;19921;-46
2022/10/18 10:13:05;;;;;;;;;;;19.50;1.00;;;;;;5034366;28;19921;-52
2022/10/18 10:15:32;;;;;;;;;;;19.50;1.00;;;;;;5034822;28;19932;-45
2022/10/18 10:18:16;;;;;;;;;;;19.50;1.00;;;;;;5034610;28;19956;-55
2022/10/18 10:20:53;;;;;;;;;;;19.50;1.00;;;;;;5034873;28;19921;-55
2022/10/18 10:23:21;;;;;;;;;;;19.40;1.00;;;;;;5034055;28;19975;-54
2022/10/18 10:25:51;;;;;;;;;;;19.50;1.00;;;;;;5034547;28;19957;-55
2022/10/18 10:28:20;;;;;;;;;;;19.40;1.00;;;;;;5034619;28;19929;-53
2022/10/18 10:30:47;;;;;;;;;;;19.50;1.00;;;;;;5034672;28;19921;-52
2022/10/18 10:33:31;;;;;;;;;;;19.50;1.00;;;;;;5033841;28;20276;-56
2022/10/18 10:35:58;;;;;;;;;;;19.40;1.00;;;;;;5034052;28;20016;-54
2022/10/18 10:38:26;;;;;;;;;;;19.50;1.00;;;;;;5034303;28;19929;-51
2022/10/18 10:40:53;;;;;;;;;;;19.50;1.00;;;;;;5034355;28;19921;-56
2022/10/18 10:43:33;;;;;;;;;;;19.50;1.00;;;;;;5033817;28;20033;-58
2022/10/18 10:46:05;;;;;;;;;;;19.50;1.00;;;;;;5034150;28;20015;-58
2022/10/18 10:48:38;;;;;;;;;;;19.50;1.00;;;;;;5033992;28;19925;-51
2022/10/18 10:51:06;;;;;;;;;;;19.50;1.00;;;;;;5034138;28;19920;-54
2022/10/18 10:53:33;;;;;;;;;;;19.40;1.00;;;;;;5033754;28;19925;-52
2022/10/18 10:56:00;;;;;;;;;;;19.40;1.00;;;;;;5034093;28;20395;-57
2022/10/18 10:58:28;;;;;;;;;;;19.40;1.00;;;;;;5033964;28;19921;-56
2022/10/18 11:00:56;;;;;;;;;;;19.40;1.00;;;;;;5034089;28;19921;-57
2022/10/18 11:03:23;;;;;;;;;;;19.50;1.00;;;;;;5033635;28;19928;-54
2022/10/18 11:05:56;;;;;;;;;;;19.50;1.00;;;;;;5033885;28;19921;-53
2022/10/18 11:08:25;;;;;;;;;;;19.50;1.00;;;;;;5033743;28;19921;-55
2022/10/18 11:11:10;;;;;;;;;;;19.50;1.00;;;;;;5033845;28;20345;-50
2022/10/18 11:13:48;;;;;;;;;;;19.50;1.00;;;;;;5033228;28;20344;-55
2022/10/18 11:16:27;;;;;;;;;;;19.50;1.00;;;;;;5033490;28;19921;-57
2022/10/18 11:18:56;;;;;;;;;;;19.50;1.00;;;;;;5033567;28;19921;-54
2022/10/18 11:21:25;;;;;;;;;;;19.50;1.00;;;;;;5033382;28;19927;-50
2022/10/18 11:23:52;;;;;;;;;;;19.50;1.00;;;;;;5033052;28;20035;-55
2022/10/18 11:26:28;;;;;;;;;;;19.50;1.00;;;;;;5033364;28;19921;-52
2022/10/18 11:29:14;;;;;;;;;;;19.50;1.00;;;;;;5033390;28;19975;-56
2022/10/18 11:31:49;;;;;;;;;;;19.40;1.00;;;;;;5033017;28;19975;-53
2022/10/18 11:34:35;;;;;;;;;;;19.40;1.00;;;;;;5033165;28;19932;-49
2022/10/18 11:37:09;;;;;;;;;;;19.40;1.00;;;;;;5033241;28;19951;-54
2022/10/18 11:40:02;;;;;;;;;;;19.40;1.00;;;;;;5033333;28;19921;-54
2022/10/18 11:42:32;;;;;;;;;;;19.40;1.00;;;;;;5032840;28;19921;-50
2022/10/18 11:45:25;;;;;;;;;;;19.40;1.00;;;;;;5033461;28;19971;-57
2022/10/18 11:48:14;;;;;;;;;;;19.30;1.00;;;;;;5033316;28;20343;-53
2022/10/18 11:50:56;;;;;;;;;;;19.30;1.00;;;;;;5033241;28;19928;-54
2022/10/18 11:53:23;;;;;;;;;;;19.30;1.00;;;;;;5032906;28;19936;-52
2022/10/18 11:56:01;;;;;;;;;;;19.30;1.00;;;;;;5032766;28;20334;-55
2022/10/18 11:58:34;;;;;;;;;;;19.30;1.00;;;;;;5033006;28;20012;-53
2022/10/18 12:01:14;;;;;;;;;;;19.30;1.00;;;;;;5035669;28;20338;-53
2022/10/18 12:03:41;;;;;;;;;;;19.30;1.00;;;;;;5039078;28;20407;-54
2022/10/18 12:06:13;;;;;;;;;;;19.30;1.00;;;;;;5039402;28;20023;-52
2022/10/18 12:08:53;;;;;;;;;;;19.30;1.00;;;;;;5039610;28;19921;-55
2022/10/18 12:11:23;;;;;;;;;;;19.30;1.00;;;;;;5039690;28;19921;-53
2022/10/18 12:13:52;;;;;;;;;;;19.30;1.00;;;;;;5038984;28;19921;-52
2022/10/18 12:16:20;;;;;;;;;;;19.30;1.00;;;;;;5039130;28;19921;-52
2022/10/18 12:19:12;;;;;;;;;;;19.30;1.00;;;;;;5039325;28;20398;-49
2022/10/18 12:21:39;;;;;;;;;;;19.30;1.00;;;;;;5039181;28;20024;-52
2022/10/18 12:24:09;;;;;;;;;;;19.30;1.00;;;;;;5039303;28;19967;-54
2022/10/18 12:26:36;;;;;;;;;;;19.30;1.00;;;;;;5039273;28;19963;-55
2022/10/18 12:29:22;;;;;;;;;;;19.30;1.00;;;;;;5039315;28;20016;-52
2022/10/18 12:31:53;;;;;;;;;;;19.30;1.00;;;;;;5039252;28;19971;-52
2022/10/18 12:34:20;;;;;;;;;;;19.30;1.00;;;;;;5039234;28;19921;-53
2022/10/18 12:36:54;;;;;;;;;;;19.20;1.00;;;;;;5039097;28;19925;-51
2022/10/18 12:39:38;;;;;;;;;;;19.20;1.00;;;;;;5039744;28;20271;-52
2022/10/18 12:42:24;;;;;;;;;;;19.20;1.00;;;;;;5038972;28;19921;-53
2022/10/18 12:45:20;;;;;;;;;;;19.20;1.00;;;;;;5037833;28;19928;-50
2022/10/18 12:47:47;;;;;;;;;;;19.10;1.00;;;;;;5019765;28;20345;-56
2022/10/18 12:50:26;;;;;;;;;;;19.20;1.00;;;;;;5038655;28;19921;-52
2022/10/18 12:53:11;;;;;;;;;;;19.20;1.00;;;;;;5038440;28;20020;-45
2022/10/18 12:55:42;;;;;;;;;;;19.20;1.00;;;;;;5039220;28;19921;-54
2022/10/18 12:58:14;;;;;;;;;;;19.10;1.00;;;;;;5039094;28;19921;-50
2022/10/18 13:00:41;;;;;;;;;;;19.10;1.00;;;;;;5039187;28;19921;-52
2022/10/18 13:03:10;;;;;;;;;;;19.10;1.00;;;;;;5038750;28;19921;-47
2022/10/18 13:05:46;;;;;;;;;;;19.10;1.00;;;;;;5038996;28;19925;-51
2022/10/18 13:08:29;;;;;;;;;;;19.10;1.00;;;;;;5039230;28;19974;-53
2022/10/18 13:11:08;;;;;;;;;;;19.10;1.00;;;;;;5038998;28;19921;-48
2022/10/18 13:13:53;;;;;;;;;;;19.10;1.00;;;;;;5034554;28;19928;-55
2022/10/18 13:16:25;;;;;;;;;;;19.10;1.00;;;;;;5035728;28;20382;-52
2022/10/18 13:18:54;;;;;;;;;;;19.10;1.00;;;;;;5035836;28;19931;-48
2022/10/18 13:21:21;;;;;;;;;;;19.10;1.00;;;;;;5035804;28;19975;-48
2022/10/18 13:24:11;;;;;;;;;;;19.10;1.00;;;;;;5035106;28;20305;-50
2022/10/18 13:26:43;;;;;;;;;;;19.10;1.00;;;;;;5032687;28;19928;-49
2022/10/18 13:29:16;;;;;;;;;;;19.10;1.00;;;;;;5035329;28;19936;-52
2022/10/18 13:31:46;;;;;;;;;;;19.10;1.00;;;;;;5035373;28;19925;-49
2022/10/18 13:34:45;;;;;;;;;;;19.10;1.00;;;;;;5035630;28;19925;-51
2022/10/18 13:37:12;;;;;;;;;;;19.10;1.00;;;;;;5023232;28;19927;-47
2022/10/18 13:39:39;;;;;;;;;;;19.10;1.00;;;;;;5035145;28;19921;-51
2022/10/18 13:42:25;;;;;;;;;;;19.10;1.00;;;;;;5034901;28;19921;-48
2022/10/18 13:44:51;;;;;;;;;;;19.10;1.00;;;;;;5035399;28;19921;-54
2022/10/18 13:47:34;;;;;;;;;;;19.10;1.00;;;;;;5034890;28;19975;-54
2022/10/18 13:50:17;;;;;;;;;;;19.20;1.00;;;;;;5035260;28;20280;-49
2022/10/18 13:52:47;;;;;;;;;;;19.10;1.00;;;;;;5034570;28;20432;-55
2022/10/18 13:55:27;;;;;;;;;;;19.20;1.00;;;;;;5034874;28;19921;-51
2022/10/18 13:58:13;;;;;;;;;;;19.20;1.00;;;;;;5034726;28;19928;-54
2022/10/18 14:00:58;;;;;;;;;;;19.20;1.00;;;;;;5034971;28;20355;-49
2022/10/18 14:03:27;;;;;;;;;;;19.20;1.00;;;;;;5034048;28;19921;-53
2022/10/18 14:06:18;;;;;;;;;;;19.20;1.00;;;;;;5024352;28;20355;-52
2022/10/18 14:09:17;;;;;;;;;;;19.20;1.00;;;;;;5034426;28;19921;-53
2022/10/18 14:12:07;;;;;;;;;;;19.10;1.00;;;;;;5025553;28;19928;-56
2022/10/18 14:14:45;;;;;;;;;;;19.20;1.00;;;;;;5034481;28;20298;-52
2022/10/18 14:17:24;;;;;;;;;;;19.20;1.00;;;;;;5034657;28;19920;-56
2022/10/18 14:19:50;;;;;;;;;;;19.20;1.00;;;;;;5034760;28;20007;-55
2022/10/18 14:22:39;;;;;;;;;;;19.30;1.00;;;;;;5034177;28;19921;-53
2022/10/18 14:25:17;;;;;;;;;;;19.30;1.00;;;;;;5034069;28;20016;-46
2022/10/18 14:27:44;;;;;;;;;;;19.30;1.00;;;;;;5034281;28;19967;-48
2022/10/18 14:30:11;;;;;;;;;;;19.30;1.00;;;;;;5034728;28;20338;-58
2022/10/18 14:32:42;;;;;;;;;;;19.30;1.00;;;;;;5033634;28;19920;-54
2022/10/18 14:35:35;;;;;;;;;;;19.30;1.00;;;;;;5034043;28;19920;-52
2022/10/18 14:38:02;;;;;;;;;;;19.40;1.00;;;;;;5014191;28;19975;-55
2022/10/18 14:40:31;;;;;;;;;;;19.40;1.00;;;;;;5016914;28;19921;-57
2022/10/18 14:43:01;;;;;;;;;;;19.40;1.00;;;;;;5015759;28;19967;-55
2022/10/18 14:45:28;;;;;;;;;;;19.40;1.00;;;;;;5022062;28;19920;-56
2022/10/18 14:48:03;;;;;;;;;;;19.50;1.00;;;;;;5024511;28;19964;-48
2022/10/18 14:50:30;;;;;;;;;;;19.50;1.00;;;;;;5024464;28;19944;-55
2022/10/18 14:53:02;;;;;;;;;;;19.50;1.00;;;;;;5019725;28;19952;-52